createdAt,value
2023-03-07T00:01:33.009Z,5.30
2023-03-07T00:04:20.474Z,4.60
2023-03-07T00:07:07.963Z,6.00
2023-03-07T00:09:56.841Z,4.17
2023-03-07T00:12:44.100Z,4.80
2023-03-07T00:15:31.669Z,4.70
2023-03-07T00:18:19.084Z,4.60
2023-03-07T00:21:08.777Z,4.83
2023-03-07T00:23:56.270Z,4.63
2023-03-07T00:26:45.209Z,4.67
2023-03-07T00:29:32.694Z,4.57
2023-03-07T00:32:20.186Z,5.20
2023-03-07T00:35:08.448Z,4.87
2023-03-07T00:37:55.843Z,5.57
2023-03-07T00:40:43.494Z,5.57
2023-03-07T00:43:33.170Z,5.90
2023-03-07T00:46:22.438Z,5.67
2023-03-07T00:49:09.883Z,5.27
2023-03-07T00:51:57.446Z,5.63
2023-03-07T00:54:45.614Z,5.63
2023-03-07T00:57:32.978Z,5.43
2023-03-07T01:00:21.962Z,5.90
2023-03-07T01:03:09.223Z,6.57
2023-03-07T01:05:56.756Z,5.83
2023-03-07T01:08:44.199Z,6.33
2023-03-07T01:11:33.412Z,6.80
2023-03-07T01:14:20.713Z,6.13
2023-03-07T01:17:09.587Z,6.70
2023-03-07T01:19:56.711Z,7.17
2023-03-07T01:22:44.200Z,6.27
2023-03-07T01:25:31.907Z,6.50
2023-03-07T01:28:19.366Z,6.57
2023-03-07T01:31:06.924Z,6.83
2023-03-07T01:33:55.660Z,8.00
2023-03-07T01:36:42.867Z,7.17
2023-03-07T01:39:30.277Z,6.47
2023-03-07T01:42:22.675Z,7.87
2023-03-07T01:45:45.615Z,8.13
2023-03-07T01:48:33.303Z,8.17
2023-03-07T01:51:22.652Z,9.27
2023-03-07T01:54:14.000Z,9.03
2023-03-07T01:57:04.559Z,9.50
2023-03-07T01:59:55.311Z,9.03
2023-03-07T02:02:46.285Z,9.33
2023-03-07T02:05:42.028Z,9.63
2023-03-07T02:08:33.061Z,11.20
2023-03-07T02:11:20.675Z,9.97
2023-03-07T02:14:08.104Z,10.47
2023-03-07T02:16:55.780Z,10.90
2023-03-07T02:19:54.989Z,11.20
2023-03-07T02:22:42.974Z,12.07
2023-03-07T02:25:37.813Z,12.37
2023-03-07T02:28:27.645Z,11.53
2023-03-07T02:31:15.689Z,11.97
2023-03-07T02:34:02.969Z,13.00
2023-03-07T02:36:54.305Z,12.73
2023-03-07T02:39:44.315Z,12.20
2023-03-07T02:42:37.010Z,12.27
2023-03-07T02:45:32.362Z,12.53
2023-03-07T02:48:19.721Z,14.03
2023-03-07T02:51:07.444Z,13.10
2023-03-07T02:53:54.710Z,10.70
2023-03-07T02:56:42.511Z,14.13
2023-03-07T02:59:30.028Z,13.07
2023-03-07T03:02:18.937Z,12.57
2023-03-07T03:05:07.361Z,12.10
2023-03-07T03:07:54.733Z,13.50
2023-03-07T03:10:43.776Z,13.73
2023-03-07T03:13:32.244Z,12.90
2023-03-07T03:16:19.759Z,13.80
2023-03-07T03:19:08.632Z,12.50
2023-03-07T03:21:56.065Z,13.93
2023-03-07T03:24:44.215Z,14.93
2023-03-07T03:27:35.276Z,14.07
2023-03-07T03:30:22.802Z,13.50
2023-03-07T03:33:10.641Z,12.83
2023-03-07T03:36:00.061Z,12.17
2023-03-07T03:38:47.881Z,13.03
2023-03-07T03:41:35.286Z,12.53
2023-03-07T03:44:22.906Z,13.60
2023-03-07T03:47:10.637Z,13.43
2023-03-07T03:49:58.093Z,12.40
2023-03-07T03:52:46.853Z,12.57
2023-03-07T03:55:34.117Z,14.03
2023-03-07T03:58:21.641Z,14.70
2023-03-07T04:01:11.898Z,13.27
2023-03-07T04:03:59.691Z,13.83
2023-03-07T04:06:47.243Z,12.63
2023-03-07T04:09:36.144Z,14.53
2023-03-07T04:12:24.010Z,13.43
2023-03-07T04:15:12.492Z,5.83
2023-03-07T04:17:59.688Z,13.20
2023-03-07T04:20:48.250Z,12.93
2023-03-07T04:23:35.797Z,13.40
2023-03-07T04:26:24.320Z,14.17
2023-03-07T04:29:11.716Z,12.67
2023-03-07T04:32:03.823Z,12.40
2023-03-07T04:34:51.131Z,10.50
2023-03-07T04:37:38.946Z,12.43
2023-03-07T04:40:26.049Z,13.03
2023-03-07T04:43:14.976Z,11.70
2023-03-07T04:46:02.251Z,11.60
2023-03-07T04:48:49.435Z,12.70
2023-03-07T04:51:36.856Z,12.03
2023-03-07T04:54:25.815Z,12.83
2023-03-07T04:57:13.322Z,10.57
2023-03-07T05:00:02.890Z,12.07
2023-03-07T05:02:50.753Z,10.83
2023-03-07T05:05:39.442Z,12.90
2023-03-07T05:08:26.999Z,11.63
2023-03-07T05:11:16.001Z,12.30
2023-03-07T05:14:03.483Z,13.03
2023-03-07T05:16:52.064Z,7.23
2023-03-07T05:19:39.231Z,12.07
2023-03-07T05:22:26.607Z,12.97
2023-03-07T05:25:14.378Z,13.73
2023-03-07T05:28:02.659Z,12.60
2023-03-07T05:30:50.324Z,13.53
2023-03-07T05:33:42.553Z,11.60
2023-03-07T05:36:29.801Z,12.77
2023-03-07T05:39:17.324Z,12.93
2023-03-07T05:42:05.370Z,12.93
2023-03-07T05:44:53.277Z,11.60
2023-03-07T05:47:40.562Z,13.27
2023-03-07T05:50:31.983Z,13.10
2023-03-07T05:53:19.733Z,13.37
2023-03-07T05:56:08.799Z,11.40
2023-03-07T05:58:57.819Z,10.00
2023-03-07T06:01:45.597Z,10.13
2023-03-07T06:04:33.348Z,13.13
2023-03-07T06:07:22.099Z,9.97
2023-03-07T06:10:10.686Z,12.33
2023-03-07T06:12:58.264Z,12.43
2023-03-07T06:15:45.777Z,14.37
2023-03-07T06:18:33.438Z,10.73
2023-03-07T06:21:20.950Z,9.70
2023-03-07T06:24:10.840Z,12.67
2023-03-07T06:26:58.857Z,12.20
2023-03-07T06:29:46.448Z,6.07
2023-03-07T06:32:34.478Z,12.90
2023-03-07T06:35:23.944Z,9.57
2023-03-07T06:38:14.269Z,12.90
2023-03-07T06:41:03.270Z,12.60
2023-03-07T06:43:52.599Z,14.10
2023-03-07T06:46:44.634Z,12.63
2023-03-07T06:49:35.047Z,12.43
2023-03-07T06:52:22.841Z,13.20
2023-03-07T06:55:11.093Z,13.40
2023-03-07T06:57:59.925Z,11.97
2023-03-07T07:00:47.602Z,12.80
2023-03-07T07:03:34.936Z,11.43
2023-03-07T07:06:22.455Z,12.27
2023-03-07T07:09:13.953Z,12.90
2023-03-07T07:12:01.220Z,10.93
2023-03-07T07:14:50.054Z,8.90
2023-03-07T07:17:38.861Z,11.50
2023-03-07T07:20:27.135Z,8.70
2023-03-07T07:23:14.277Z,11.27
2023-03-07T07:26:01.632Z,11.83
2023-03-07T07:28:48.975Z,10.77
2023-03-07T07:31:37.890Z,11.73
2023-03-07T07:34:26.059Z,11.57
2023-03-07T07:37:13.652Z,11.90
2023-03-07T07:40:01.187Z,11.37
2023-03-07T07:42:54.310Z,10.93
2023-03-07T07:45:56.011Z,9.60
2023-03-07T07:48:44.447Z,9.43
2023-03-07T07:51:31.751Z,10.83
2023-03-07T07:54:19.341Z,11.33
2023-03-07T07:57:08.172Z,9.87
2023-03-07T07:59:56.050Z,9.90
2023-03-07T08:02:43.597Z,9.23
2023-03-07T08:05:32.259Z,10.17
2023-03-07T08:08:20.347Z,11.57
2023-03-07T08:11:08.389Z,10.20
2023-03-07T08:13:55.526Z,9.63
2023-03-07T08:16:43.412Z,8.20
2023-03-07T08:19:31.080Z,9.27
2023-03-07T08:22:19.825Z,10.73
2023-03-07T08:25:09.278Z,8.40
2023-03-07T08:27:58.096Z,8.50
2023-03-07T08:30:45.509Z,9.30
2023-03-07T08:33:33.914Z,6.57
2023-03-07T08:36:21.812Z,9.37
2023-03-07T08:39:10.272Z,9.53
2023-03-07T08:41:57.337Z,9.53
2023-03-07T08:44:44.790Z,10.10
2023-03-07T08:47:32.075Z,9.20
2023-03-07T08:50:19.752Z,8.73
2023-03-07T08:53:07.003Z,6.47
2023-03-07T08:55:55.796Z,7.37
2023-03-07T08:58:43.994Z,5.77
2023-03-07T09:01:31.255Z,7.90
2023-03-07T09:04:18.843Z,7.03
2023-03-07T09:07:06.560Z,5.73
2023-03-07T09:09:53.779Z,7.00
2023-03-07T09:12:42.681Z,3.83
2023-03-07T09:15:29.822Z,6.70
2023-03-07T09:18:17.187Z,7.57
2023-03-07T09:21:06.972Z,7.20
2023-03-07T09:23:54.442Z,6.63
2023-03-07T09:26:41.966Z,6.03
2023-03-07T09:29:30.696Z,6.87
2023-03-07T09:32:17.858Z,6.77
2023-03-07T09:35:05.715Z,5.93
2023-03-07T09:37:52.938Z,4.07
2023-03-07T09:40:40.298Z,6.60
2023-03-07T09:43:36.061Z,5.80
2023-03-07T09:47:02.249Z,5.40
2023-03-07T09:49:51.587Z,5.60
2023-03-07T09:52:41.265Z,5.60
2023-03-07T09:55:30.392Z,6.37
2023-03-07T09:58:23.033Z,5.77
2023-03-07T10:01:12.977Z,5.37
2023-03-07T10:04:05.761Z,4.83
2023-03-07T10:06:58.646Z,6.17
2023-03-07T10:09:46.771Z,5.17
2023-03-07T10:12:57.029Z,4.93
2023-03-07T10:15:46.927Z,4.87
2023-03-07T10:19:11.374Z,5.23
2023-03-07T10:22:04.534Z,5.50
2023-03-07T10:30:16.832Z,3.20
2023-03-07T10:33:07.552Z,4.70
2023-03-07T10:36:04.077Z,5.10
2023-03-07T10:39:01.236Z,5.20
2023-03-07T10:41:48.444Z,5.10
2023-03-07T10:44:36.110Z,5.37
2023-03-07T10:47:24.889Z,5.77
2023-03-07T10:50:32.549Z,5.33
2023-03-07T10:53:33.189Z,5.80
2023-03-07T10:56:20.771Z,5.60
2023-03-07T10:59:09.954Z,5.63
2023-03-07T11:01:59.913Z,5.70
2023-03-07T11:04:48.052Z,5.40
2023-03-07T11:07:37.050Z,5.67
2023-03-07T11:10:33.940Z,5.30
2023-03-07T11:13:23.034Z,5.03
2023-03-07T11:16:17.135Z,4.70
2023-03-07T11:19:05.117Z,4.67
2023-03-07T11:21:55.441Z,5.17
2023-03-07T11:24:49.438Z,8.17
2023-03-07T11:27:41.033Z,5.40
2023-03-07T11:30:31.049Z,4.33
2023-03-07T11:33:24.443Z,3.27
2023-03-07T11:36:16.602Z,3.10
2023-03-07T11:39:13.773Z,2.60
2023-03-07T11:42:04.694Z,2.30
2023-03-07T11:44:55.695Z,2.63
2023-03-07T11:47:53.112Z,2.10
2023-03-07T11:50:43.790Z,2.20
2023-03-07T11:53:41.938Z,2.40
2023-03-07T11:56:35.659Z,2.00
2023-03-07T12:00:06.761Z,2.03
2023-03-07T12:03:33.507Z,1.97
2023-03-07T12:06:40.884Z,1.97
2023-03-07T12:09:39.881Z,2.50
2023-03-07T12:12:48.376Z,2.53
2023-03-07T12:15:41.402Z,2.80
2023-03-07T12:18:53.293Z,2.30
2023-03-07T12:21:59.056Z,2.07
2023-03-07T12:24:59.453Z,2.30
2023-03-07T12:27:51.519Z,2.63
2023-03-07T12:30:51.661Z,1.73
2023-03-07T12:33:55.174Z,2.10
2023-03-07T12:36:47.391Z,1.93
2023-03-07T12:39:51.783Z,1.50
2023-03-07T12:42:43.112Z,2.00
2023-03-07T12:45:37.342Z,1.73
2023-03-07T12:48:34.265Z,1.57
2023-03-07T12:51:26.921Z,1.63
2023-03-07T12:54:19.105Z,2.00
2023-03-07T12:57:10.999Z,1.40
2023-03-07T13:00:02.815Z,1.10
2023-03-07T13:03:00.652Z,1.50
2023-03-07T13:05:48.928Z,1.47
2023-03-07T13:08:37.516Z,1.13
2023-03-07T13:11:27.005Z,1.73
2023-03-07T13:14:40.546Z,1.47
2023-03-07T13:17:57.639Z,1.17
2023-03-07T13:20:45.839Z,1.37
2023-03-07T13:23:33.088Z,1.40
2023-03-07T13:26:26.244Z,1.40
2023-03-07T13:29:14.115Z,1.40
2023-03-07T13:32:01.518Z,1.50
2023-03-07T13:34:52.246Z,1.50
2023-03-07T13:37:56.608Z,1.20
2023-03-07T13:40:55.636Z,1.87
2023-03-07T13:44:01.385Z,1.50
2023-03-07T13:46:51.623Z,1.60
2023-03-07T13:49:46.441Z,1.50
2023-03-07T13:52:39.133Z,1.90
2023-03-07T13:55:41.114Z,1.90
2023-03-07T13:58:33.965Z,1.70
2023-03-07T14:01:25.282Z,1.77
2023-03-07T14:04:24.205Z,1.70
2023-03-07T14:07:25.211Z,1.70
2023-03-07T14:10:22.764Z,1.73
2023-03-07T14:18:44.571Z,1.50
2023-03-07T14:21:45.544Z,1.60
2023-03-07T14:24:53.730Z,2.13
2023-03-07T14:27:58.552Z,1.70
2023-03-07T14:30:56.128Z,1.50
2023-03-07T14:33:44.944Z,1.80
2023-03-07T14:36:33.441Z,1.53
2023-03-07T14:39:21.824Z,2.10
2023-03-07T14:42:19.013Z,1.67
2023-03-07T14:45:23.269Z,1.77
2023-03-07T14:48:24.544Z,1.80
2023-03-07T14:51:16.600Z,1.77
2023-03-07T14:54:08.931Z,1.50
2023-03-07T14:56:56.385Z,1.90
2023-03-07T14:59:43.577Z,1.40
2023-03-07T15:02:30.805Z,1.40
2023-03-07T15:05:20.302Z,1.77
2023-03-07T15:08:20.192Z,1.23
2023-03-07T15:11:13.289Z,1.40
2023-03-07T15:14:04.675Z,1.00
2023-03-07T15:16:54.772Z,1.47
2023-03-07T15:19:48.002Z,1.40
2023-03-07T15:22:40.103Z,1.80
2023-03-07T15:25:28.620Z,1.27
2023-03-07T15:28:19.954Z,1.20
2023-03-07T15:31:08.635Z,1.50
2023-03-07T15:34:11.884Z,1.30
2023-03-07T15:37:21.329Z,1.40
2023-03-07T15:40:26.457Z,1.40
2023-03-07T15:43:28.217Z,1.20
2023-03-07T15:46:18.972Z,1.10
2023-03-07T15:49:06.511Z,1.30
2023-03-07T15:51:56.124Z,1.53
2023-03-07T15:54:43.481Z,1.63
2023-03-07T15:57:33.363Z,1.10
2023-03-07T16:00:26.251Z,1.10
2023-03-07T16:03:26.041Z,1.30
2023-03-07T16:06:32.096Z,1.50
2023-03-07T16:09:20.047Z,1.73
2023-03-07T16:12:12.997Z,1.57
2023-03-07T16:15:02.759Z,1.50
2023-03-07T16:17:54.999Z,1.60
2023-03-07T16:20:42.470Z,1.67
2023-03-07T16:23:31.382Z,1.70
2023-03-07T16:26:21.851Z,1.50
2023-03-07T16:29:14.786Z,1.47
2023-03-07T16:32:02.255Z,1.67
2023-03-07T16:34:51.522Z,1.70
2023-03-07T16:37:38.763Z,1.40
2023-03-07T16:40:32.358Z,1.90
2023-03-07T16:43:35.500Z,1.70
2023-03-07T16:46:23.007Z,2.00
2023-03-07T16:49:15.325Z,1.43
2023-03-07T16:52:06.436Z,1.67
2023-03-07T16:54:54.111Z,1.80
2023-03-07T16:57:42.445Z,1.43
2023-03-07T17:00:30.092Z,1.80
2023-03-07T17:03:17.344Z,1.80
2023-03-07T17:06:05.096Z,1.70
2023-03-07T17:08:53.853Z,2.17
2023-03-07T17:11:45.170Z,2.10
2023-03-07T17:14:32.317Z,1.70
2023-03-07T17:17:23.304Z,2.10
2023-03-07T17:20:14.402Z,1.70
2023-03-07T17:23:01.877Z,1.80
2023-03-07T17:25:50.721Z,2.00
2023-03-07T17:28:37.783Z,1.97
2023-03-07T17:31:25.959Z,2.10
2023-03-07T17:34:23.101Z,2.10
2023-03-07T17:37:12.264Z,2.20
2023-03-07T17:40:00.491Z,1.90
2023-03-07T17:42:51.451Z,2.27
2023-03-07T17:45:40.077Z,2.30
2023-03-07T17:48:27.309Z,3.13
2023-03-07T17:51:14.993Z,2.80
2023-03-07T17:54:02.342Z,2.63
2023-03-07T17:56:49.923Z,2.33
2023-03-07T17:59:39.063Z,2.50
2023-03-07T18:02:26.862Z,2.70
2023-03-07T18:05:14.299Z,2.57
2023-03-07T18:08:01.465Z,2.60
2023-03-07T18:10:48.810Z,2.90
2023-03-07T18:13:36.994Z,2.60
2023-03-07T18:16:25.953Z,2.47
2023-03-07T18:19:25.381Z,3.20
2023-03-07T18:22:13.443Z,2.70
2023-03-07T18:25:01.000Z,2.27
2023-03-07T18:27:48.709Z,2.23
2023-03-07T18:30:35.841Z,2.70
2023-03-07T18:33:24.846Z,2.50
2023-03-07T18:36:14.869Z,2.50
2023-03-07T18:39:02.164Z,2.10
2023-03-07T18:41:50.371Z,2.27
2023-03-07T18:44:40.049Z,2.10
2023-03-07T18:47:28.660Z,2.60
2023-03-07T18:50:18.022Z,2.23
2023-03-07T18:53:06.280Z,1.60
2023-03-07T18:55:53.775Z,1.60
2023-03-07T18:58:42.309Z,2.23
2023-03-07T19:01:31.500Z,2.10
2023-03-07T19:04:19.229Z,1.83
2023-03-07T19:07:07.997Z,2.37
2023-03-07T19:09:56.571Z,2.10
2023-03-07T19:12:44.258Z,2.00
2023-03-07T19:15:31.956Z,2.97
2023-03-07T19:18:19.366Z,2.60
2023-03-07T19:21:07.484Z,2.27
2023-03-07T19:23:58.612Z,2.83
2023-03-07T19:26:46.408Z,2.80
2023-03-07T19:29:34.873Z,3.30
2023-03-07T19:32:22.269Z,3.77
2023-03-07T19:35:10.371Z,2.97
2023-03-07T19:37:57.852Z,3.40
2023-03-07T19:40:49.959Z,3.53
2023-03-07T19:43:37.396Z,4.33
2023-03-07T19:46:25.601Z,3.80
2023-03-07T19:49:12.955Z,3.80
2023-03-07T19:52:00.401Z,3.73
2023-03-07T19:54:48.181Z,3.80
2023-03-07T19:57:37.791Z,3.80
2023-03-07T20:00:25.567Z,3.37
2023-03-07T20:03:14.614Z,3.77
2023-03-07T20:06:03.464Z,3.77
2023-03-07T20:08:51.527Z,3.83
2023-03-07T20:11:43.138Z,3.73
2023-03-07T20:14:31.669Z,4.33
2023-03-07T20:17:18.845Z,4.03
2023-03-07T20:20:08.132Z,4.20
2023-03-07T20:22:56.247Z,4.10
2023-03-07T20:25:43.733Z,3.97
2023-03-07T20:28:31.290Z,3.83
2023-03-07T20:31:22.045Z,4.10
2023-03-07T20:34:09.280Z,4.40
2023-03-07T20:36:56.543Z,4.53
2023-03-07T20:39:43.990Z,4.27
2023-03-07T20:42:31.556Z,4.57
2023-03-07T20:45:19.059Z,5.10
2023-03-07T20:48:07.786Z,4.40
2023-03-07T20:50:54.733Z,4.23
2023-03-07T20:53:42.170Z,4.83
2023-03-07T20:56:31.213Z,4.97
2023-03-07T20:59:19.837Z,4.47
2023-03-07T21:02:07.549Z,4.27
2023-03-07T21:04:56.354Z,4.90
2023-03-07T21:07:43.608Z,4.60
2023-03-07T21:10:30.890Z,4.53
2023-03-07T21:13:18.527Z,4.00
2023-03-07T21:16:08.003Z,4.53
2023-03-07T21:19:00.913Z,4.33
2023-03-07T21:21:49.944Z,4.70
2023-03-07T21:24:37.640Z,4.20
2023-03-07T21:27:25.027Z,3.90
2023-03-07T21:30:13.494Z,4.20
2023-03-07T21:33:00.976Z,3.37
2023-03-07T21:35:49.242Z,4.00
2023-03-07T21:38:39.731Z,3.77
2023-03-07T21:41:27.884Z,4.23
2023-03-07T21:44:15.377Z,3.87
2023-03-07T21:47:02.834Z,3.03
2023-03-07T21:49:50.233Z,3.70
2023-03-07T21:52:37.620Z,3.20
2023-03-07T21:55:26.609Z,3.17
2023-03-07T21:58:13.787Z,3.00
2023-03-07T22:01:01.529Z,3.43
2023-03-07T22:03:49.061Z,3.03
2023-03-07T22:06:36.826Z,2.90
2023-03-07T22:09:24.246Z,3.10
2023-03-07T22:12:13.097Z,3.00
2023-03-07T22:15:00.399Z,3.27
2023-03-07T22:17:47.572Z,3.03
2023-03-07T22:20:35.078Z,3.17
2023-03-07T22:23:22.845Z,2.80
2023-03-07T22:26:11.933Z,3.00
2023-03-07T22:29:00.918Z,2.37
2023-03-07T22:31:48.343Z,2.83
2023-03-07T22:34:35.400Z,2.33
2023-03-07T22:37:22.504Z,2.73
2023-03-07T22:40:11.322Z,2.37
2023-03-07T22:42:58.834Z,2.10
2023-03-07T22:45:50.851Z,2.40
2023-03-07T22:48:38.337Z,2.90
2023-03-07T22:51:26.987Z,2.33
2023-03-07T22:54:14.626Z,3.00
2023-03-07T22:57:02.203Z,1.90
2023-03-07T22:59:49.883Z,2.40
2023-03-07T23:02:38.618Z,1.73
2023-03-07T23:05:25.841Z,2.13
2023-03-07T23:08:13.334Z,1.90
2023-03-07T23:11:05.809Z,1.80
2023-03-07T23:13:54.030Z,1.63
2023-03-07T23:16:42.149Z,1.70
2023-03-07T23:19:31.668Z,1.80
2023-03-07T23:22:18.929Z,1.70
2023-03-07T23:25:06.727Z,1.77
2023-03-07T23:27:54.305Z,2.40
2023-03-07T23:30:42.011Z,1.83
2023-03-07T23:33:29.291Z,1.80
2023-03-07T23:36:18.135Z,1.23
2023-03-07T23:39:05.668Z,1.47
2023-03-07T23:41:53.048Z,2.03
2023-03-07T23:44:40.461Z,1.40
2023-03-07T23:47:28.080Z,1.90
2023-03-07T23:50:16.263Z,1.27
2023-03-07T23:53:05.816Z,1.60
2023-03-07T23:55:53.843Z,1.93
2023-03-07T23:58:42.209Z,1.60
